sensor_id;sensor_type;location;lat;lon;timestamp;pressure;altitude;pressure_sealevel;temperature;humidity
28921;BME280;16035;53.594;9.952;2023-08-06T00:01:18;100718.97;;;18.09;63.41
28921;BME280;16035;53.594;9.952;2023-08-06T00:03:21;100718.19;;;18.09;63.20
28921;BME280;16035;53.594;9.952;2023-08-06T00:05:21;100710.22;;;18.07;63.60
28921;BME280;16035;53.594;9.952;2023-08-06T00:07:22;100703.22;;;18.01;63.71
28921;BME280;16035;53.594;9.952;2023-08-06T00:09:22;100705.44;;;17.99;64.13
28921;BME280;16035;53.594;9.952;2023-08-06T00:11:22;100704.66;;;17.99;64.19
28921;BME280;16035;53.594;9.952;2023-08-06T00:13:23;100695.91;;;17.97;64.38
28921;BME280;16035;53.594;9.952;2023-08-06T00:15:23;100693.47;;;17.95;64.46
28921;BME280;16035;53.594;9.952;2023-08-06T00:17:23;100688.91;;;17.90;64.85
28921;BME280;16035;53.594;9.952;2023-08-06T00:19:24;100690.34;;;17.88;64.80
28921;BME280;16035;53.594;9.952;2023-08-06T00:21:24;100688.72;;;17.87;65.00
28921;BME280;16035;53.594;9.952;2023-08-06T00:23:24;100689.34;;;17.84;65.10
28921;BME280;16035;53.594;9.952;2023-08-06T00:25:25;100690.28;;;17.79;65.27
28921;BME280;16035;53.594;9.952;2023-08-06T00:27:25;100687.84;;;17.78;65.21
28921;BME280;16035;53.594;9.952;2023-08-06T00:29:26;100685.59;;;17.80;65.48
28921;BME280;16035;53.594;9.952;2023-08-06T00:31:26;100688.44;;;17.75;65.54
28921;BME280;16035;53.594;9.952;2023-08-06T00:33:27;100683.38;;;17.68;65.43
28921;BME280;16035;53.594;9.952;2023-08-06T00:35:27;100683.16;;;17.64;65.67
28921;BME280;16035;53.594;9.952;2023-08-06T00:37:27;100678.78;;;17.63;65.90
28921;BME280;16035;53.594;9.952;2023-08-06T00:39:28;100681.03;;;17.61;66.08
28921;BME280;16035;53.594;9.952;2023-08-06T00:41:28;100679.09;;;17.62;66.24
28921;BME280;16035;53.594;9.952;2023-08-06T00:43:28;100678.59;;;17.60;66.34
28921;BME280;16035;53.594;9.952;2023-08-06T00:45:29;100676.16;;;17.58;66.47
28921;BME280;16035;53.594;9.952;2023-08-06T00:47:30;100682.78;;;17.57;66.40
28921;BME280;16035;53.594;9.952;2023-08-06T00:49:31;100678.88;;;17.58;66.42
28921;BME280;16035;53.594;9.952;2023-08-06T00:51:32;100681.34;;;17.60;66.54
28921;BME280;16035;53.594;9.952;2023-08-06T00:53:32;100669.22;;;17.61;66.98
28921;BME280;16035;53.594;9.952;2023-08-06T00:55:32;100673.09;;;17.60;67.00
28921;BME280;16035;53.594;9.952;2023-08-06T00:57:33;100667.28;;;17.61;67.04
28921;BME280;16035;53.594;9.952;2023-08-06T00:59:34;100657.72;;;17.59;67.15
28921;BME280;16035;53.594;9.952;2023-08-06T01:01:34;100665.97;;;17.59;67.10
28921;BME280;16035;53.594;9.952;2023-08-06T01:03:35;100658.03;;;17.57;67.34
28921;BME280;16035;53.594;9.952;2023-08-06T01:05:35;100658.34;;;17.56;67.55
28921;BME280;16035;53.594;9.952;2023-08-06T01:07:56;100648.38;;;17.60;68.27
28921;BME280;16035;53.594;9.952;2023-08-06T01:15:15;100648.50;;;17.55;68.43
28921;BME280;16035;53.594;9.952;2023-08-06T01:17:17;100647.66;;;17.54;68.09
28921;BME280;16035;53.594;9.952;2023-08-06T01:19:18;100638.81;;;17.57;68.20
28921;BME280;16035;53.594;9.952;2023-08-06T01:21:19;100633.00;;;17.59;68.09
28921;BME280;16035;53.594;9.952;2023-08-06T01:23:20;100638.81;;;17.57;68.29
28921;BME280;16035;53.594;9.952;2023-08-06T01:25:21;100637.19;;;17.56;68.29
28921;BME280;16035;53.594;9.952;2023-08-06T01:27:33;100625.06;;;17.57;68.58
28921;BME280;16035;53.594;9.952;2023-08-06T01:29:47;100634.13;;;17.58;68.83
28921;BME280;16035;53.594;9.952;2023-08-06T01:31:51;100618.75;;;17.57;68.72
28921;BME280;16035;53.594;9.952;2023-08-06T01:33:53;100613.06;;;17.53;68.45
28921;BME280;16035;53.594;9.952;2023-08-06T01:35:55;100628.44;;;17.54;68.69
28921;BME280;16035;53.594;9.952;2023-08-06T01:37:55;100620.19;;;17.54;68.77
28921;BME280;16035;53.594;9.952;2023-08-06T01:39:56;100622.94;;;17.54;68.81
28921;BME280;16035;53.594;9.952;2023-08-06T01:41:57;100616.34;;;17.55;68.83
28921;BME280;16035;53.594;9.952;2023-08-06T01:43:57;100617.16;;;17.56;68.98
28921;BME280;16035;53.594;9.952;2023-08-06T01:45:58;100615.19;;;17.56;69.08
28921;BME280;16035;53.594;9.952;2023-08-06T01:47:58;100611.31;;;17.57;69.00
28921;BME280;16035;53.594;9.952;2023-08-06T01:49:58;100603.41;;;17.56;69.16
28921;BME280;16035;53.594;9.952;2023-08-06T01:51:59;100598.72;;;17.56;69.14
28921;BME280;16035;53.594;9.952;2023-08-06T01:53:59;100592.91;;;17.58;69.11
28921;BME280;16035;53.594;9.952;2023-08-06T01:55:59;100595.16;;;17.56;69.20
28921;BME280;16035;53.594;9.952;2023-08-06T01:58:00;100595.44;;;17.54;69.33
28921;BME280;16035;53.594;9.952;2023-08-06T02:00:00;100591.91;;;17.54;69.42
28921;BME280;16035;53.594;9.952;2023-08-06T02:02:00;100590.81;;;17.55;69.32
28921;BME280;16035;53.594;9.952;2023-08-06T02:04:01;100587.22;;;17.54;69.46
28921;BME280;16035;53.594;9.952;2023-08-06T02:06:01;100583.97;;;17.52;69.82
28921;BME280;16035;53.594;9.952;2023-08-06T02:08:02;100580.75;;;17.50;69.78
28921;BME280;16035;53.594;9.952;2023-08-06T02:10:02;100580.75;;;17.50;69.74
28921;BME280;16035;53.594;9.952;2023-08-06T02:12:03;100584.59;;;17.49;69.95
28921;BME280;16035;53.594;9.952;2023-08-06T02:14:03;100590.09;;;17.49;69.96
28921;BME280;16035;53.594;9.952;2023-08-06T02:16:07;100584.09;;;17.47;70.04
28921;BME280;16035;53.594;9.952;2023-08-06T02:18:08;100591.72;;;17.50;70.09
28921;BME280;16035;53.594;9.952;2023-08-06T02:20:09;100586.25;;;17.50;70.35
28921;BME280;16035;53.594;9.952;2023-08-06T02:22:09;100584.59;;;17.49;70.09
28921;BME280;16035;53.594;9.952;2023-08-06T02:24:10;100581.22;;;17.52;70.27
28921;BME280;16035;53.594;9.952;2023-08-06T02:26:10;100583.16;;;17.52;70.30
28921;BME280;16035;53.594;9.952;2023-08-06T02:28:10;100586.72;;;17.52;70.46
28921;BME280;16035;53.594;9.952;2023-08-06T02:30:11;100581.34;;;17.47;70.17
28921;BME280;16035;53.594;9.952;2023-08-06T02:32:11;100577.47;;;17.48;70.34
28921;BME280;16035;53.594;9.952;2023-08-06T02:34:11;100567.91;;;17.46;70.37
28921;BME280;16035;53.594;9.952;2023-08-06T02:36:12;100570.16;;;17.43;70.61
28921;BME280;16035;53.594;9.952;2023-08-06T02:38:12;100571.59;;;17.41;70.37
28921;BME280;16035;53.594;9.952;2023-08-06T02:40:12;100566.75;;;17.38;70.64
28921;BME280;16035;53.594;9.952;2023-08-06T02:42:12;100568.84;;;17.41;70.76
28921;BME280;16035;53.594;9.952;2023-08-06T02:44:13;100565.28;;;17.40;70.78
28921;BME280;16035;53.594;9.952;2023-08-06T02:46:13;100553.28;;;17.36;70.76
28921;BME280;16035;53.594;9.952;2023-08-06T02:48:13;100554.44;;;17.35;70.84
28921;BME280;16035;53.594;9.952;2023-08-06T02:50:14;100553.94;;;17.33;71.05
28921;BME280;16035;53.594;9.952;2023-08-06T02:52:14;100544.25;;;17.36;70.96
28921;BME280;16035;53.594;9.952;2023-08-06T02:54:14;100540.50;;;17.32;71.14
28921;BME280;16035;53.594;9.952;2023-08-06T02:56:15;100541.94;;;17.29;71.13
28921;BME280;16035;53.594;9.952;2023-08-06T02:58:15;100544.38;;;17.31;70.92
28921;BME280;16035;53.594;9.952;2023-08-06T03:00:16;100544.91;;;17.33;71.26
28921;BME280;16035;53.594;9.952;2023-08-06T03:02:16;100533.91;;;17.33;71.10
28921;BME280;16035;53.594;9.952;2023-08-06T03:04:17;100537.75;;;17.32;71.19
28921;BME280;16035;53.594;9.952;2023-08-06T03:06:18;100537.47;;;17.33;71.19
28921;BME280;16035;53.594;9.952;2023-08-06T03:08:18;100535.19;;;17.35;71.25
28921;BME280;16035;53.594;9.952;2023-08-06T03:10:22;100539.06;;;17.34;71.41
28921;BME280;16035;53.594;9.952;2023-08-06T03:12:22;100536.94;;;17.31;71.31
28921;BME280;16035;53.594;9.952;2023-08-06T03:14:23;100540.34;;;17.28;71.45
28921;BME280;16035;53.594;9.952;2023-08-06T03:16:23;100545.00;;;17.28;71.45
28921;BME280;16035;53.594;9.952;2023-08-06T03:18:23;100538.19;;;17.25;71.48
28921;BME280;16035;53.594;9.952;2023-08-06T03:20:25;100539.00;;;17.26;71.58
28921;BME280;16035;53.594;9.952;2023-08-06T03:22:25;100533.03;;;17.24;71.77
28921;BME280;16035;53.594;9.952;2023-08-06T03:24:25;100535.94;;;17.27;71.54
28921;BME280;16035;53.594;9.952;2023-08-06T03:26:26;100545.00;;;17.28;71.86
28921;BME280;16035;53.594;9.952;2023-08-06T03:28:26;100536.75;;;17.28;72.01
28921;BME280;16035;53.594;9.952;2023-08-06T03:30:26;100531.25;;;17.28;72.24
28921;BME280;16035;53.594;9.952;2023-08-06T03:32:26;100533.50;;;17.26;72.44
28921;BME280;16035;53.594;9.952;2023-08-06T03:34:27;100530.78;;;17.26;71.99
28921;BME280;16035;53.594;9.952;2023-08-06T03:36:27;100525.59;;;17.24;72.12
28921;BME280;16035;53.594;9.952;2023-08-06T03:38:28;100522.53;;;17.26;72.25
28921;BME280;16035;53.594;9.952;2023-08-06T03:40:28;100522.22;;;17.27;71.92
28921;BME280;16035;53.594;9.952;2023-08-06T03:42:28;100521.72;;;17.25;72.09
28921;BME280;16035;53.594;9.952;2023-08-06T03:44:29;100519.28;;;17.24;72.16
28921;BME280;16035;53.594;9.952;2023-08-06T03:46:29;100513.81;;;17.24;72.13
28921;BME280;16035;53.594;9.952;2023-08-06T03:48:32;100510.22;;;17.23;72.38
28921;BME280;16035;53.594;9.952;2023-08-06T03:50:32;100512.97;;;17.23;72.54
28921;BME280;16035;53.594;9.952;2023-08-06T03:52:33;100509.72;;;17.21;72.50
28921;BME280;16035;53.594;9.952;2023-08-06T03:54:33;100512.00;;;17.19;72.56
28921;BME280;16035;53.594;9.952;2023-08-06T03:56:33;100514.53;;;17.15;72.39
28921;BME280;16035;53.594;9.952;2023-08-06T03:58:34;100513.41;;;17.16;72.64
28921;BME280;16035;53.594;9.952;2023-08-06T04:00:34;100512.28;;;17.17;72.56
28921;BME280;16035;53.594;9.952;2023-08-06T04:02:34;100513.09;;;17.18;72.59
28921;BME280;16035;53.594;9.952;2023-08-06T04:04:35;100508.94;;;17.21;72.64
28921;BME280;16035;53.594;9.952;2023-08-06T04:06:35;100510.84;;;17.20;72.80
28921;BME280;16035;53.594;9.952;2023-08-06T04:08:35;100506.66;;;17.23;72.72
28921;BME280;16035;53.594;9.952;2023-08-06T04:10:36;100501.69;;;17.25;72.50
28921;BME280;16035;53.594;9.952;2023-08-06T04:12:36;100507.19;;;17.25;72.53
28921;BME280;16035;53.594;9.952;2023-08-06T04:14:39;100508.59;;;17.22;72.51
28921;BME280;16035;53.594;9.952;2023-08-06T04:16:39;100505.66;;;17.18;72.77
28921;BME280;16035;53.594;9.952;2023-08-06T04:18:39;100512.28;;;17.17;72.75
28921;BME280;16035;53.594;9.952;2023-08-06T04:20:46;100505.78;;;17.13;72.98
28921;BME280;16035;53.594;9.952;2023-08-06T04:22:47;100504.16;;;17.12;72.80
28921;BME280;16035;53.594;9.952;2023-08-06T04:24:47;100503.38;;;17.12;72.82
28921;BME280;16035;53.594;9.952;2023-08-06T04:26:48;100506.09;;;17.12;72.91
28921;BME280;16035;53.594;9.952;2023-08-06T04:28:48;100506.44;;;17.10;72.87
28921;BME280;16035;53.594;9.952;2023-08-06T04:30:49;100508.97;;;17.07;72.77
28921;BME280;16035;53.594;9.952;2023-08-06T04:32:49;100502.97;;;17.05;72.87
28921;BME280;16035;53.594;9.952;2023-08-06T04:34:50;100512.34;;;17.04;72.93
28921;BME280;16035;53.594;9.952;2023-08-06T04:36:50;100515.41;;;17.02;73.12
28921;BME280;16035;53.594;9.952;2023-08-06T04:38:51;100508.56;;;17.00;73.15
28921;BME280;16035;53.594;9.952;2023-08-06T04:40:51;100512.13;;;17.00;72.98
28921;BME280;16035;53.594;9.952;2023-08-06T04:42:52;100512.13;;;17.00;73.07
28921;BME280;16035;53.594;9.952;2023-08-06T04:44:52;100514.25;;;17.03;73.10
28921;BME280;16035;53.594;9.952;2023-08-06T04:46:52;100516.19;;;17.03;72.96
28921;BME280;16035;53.594;9.952;2023-08-06T04:48:53;100504.69;;;17.01;73.13
28921;BME280;16035;53.594;9.952;2023-08-06T04:50:53;100511.84;;;17.02;73.33
28921;BME280;16035;53.594;9.952;2023-08-06T04:52:54;100501.59;;;16.93;72.78
28921;BME280;16035;53.594;9.952;2023-08-06T04:54:55;100502.19;;;16.90;73.10
28921;BME280;16035;53.594;9.952;2023-08-06T04:56:55;100503.66;;;16.88;72.94
28921;BME280;16035;53.594;9.952;2023-08-06T04:58:56;100511.69;;;16.84;72.91
28921;BME280;16035;53.594;9.952;2023-08-06T05:00:57;100509.22;;;16.83;74.00
28921;BME280;16035;53.594;9.952;2023-08-06T05:02:59;100508.13;;;16.84;73.20
28921;BME280;16035;53.594;9.952;2023-08-06T05:05:00;100512.81;;;16.83;73.38
28921;BME280;16035;53.594;9.952;2023-08-06T05:07:01;100509.75;;;16.85;73.52
28921;BME280;16035;53.594;9.952;2023-08-06T05:09:01;100517.66;;;16.86;73.55
28921;BME280;16035;53.594;9.952;2023-08-06T05:11:01;100521.72;;;16.89;73.31
28921;BME280;16035;53.594;9.952;2023-08-06T05:13:02;100517.84;;;16.90;73.43
28921;BME280;16035;53.594;9.952;2023-08-06T05:15:02;100524.69;;;16.92;73.68
28921;BME280;16035;53.594;9.952;2023-08-06T05:17:03;100510.94;;;16.92;73.52
28921;BME280;16035;53.594;9.952;2023-08-06T05:19:04;100513.38;;;16.94;73.51
28921;BME280;16035;53.594;9.952;2023-08-06T05:21:05;100516.63;;;16.96;73.67
28921;BME280;16035;53.594;9.952;2023-08-06T05:23:05;100513.38;;;16.94;73.56
28921;BME280;16035;53.594;9.952;2023-08-06T05:25:06;100518.88;;;16.94;73.78
28921;BME280;16035;53.594;9.952;2023-08-06T05:27:06;100522.09;;;16.96;73.75
28921;BME280;16035;53.594;9.952;2023-08-06T05:29:07;100510.31;;;16.96;73.95
28921;BME280;16035;53.594;9.952;2023-08-06T05:31:07;100510.84;;;16.98;73.76
28921;BME280;16035;53.594;9.952;2023-08-06T05:33:07;100514.38;;;16.98;73.94
28921;BME280;16035;53.594;9.952;2023-08-06T05:35:08;100508.56;;;17.00;73.96
28921;BME280;16035;53.594;9.952;2023-08-06T05:37:08;100502.78;;;17.01;73.90
28921;BME280;16035;53.594;9.952;2023-08-06T05:39:09;100502.97;;;17.05;74.06
28921;BME280;16035;53.594;9.952;2023-08-06T05:41:09;100498.47;;;17.09;73.94
28921;BME280;16035;53.594;9.952;2023-08-06T05:43:10;100512.53;;;17.07;73.76
28921;BME280;16035;53.594;9.952;2023-08-06T05:45:10;100508.97;;;17.07;73.92
28921;BME280;16035;53.594;9.952;2023-08-06T05:47:10;100506.53;;;17.05;73.95
28921;BME280;16035;53.594;9.952;2023-08-06T05:49:11;100504.91;;;17.04;73.90
28921;BME280;16035;53.594;9.952;2023-08-06T05:51:13;100499.13;;;17.06;74.00
28921;BME280;16035;53.594;9.952;2023-08-06T05:53:14;100494.44;;;17.06;74.06
28921;BME280;16035;53.594;9.952;2023-08-06T05:55:14;100498.81;;;17.07;74.33
28921;BME280;16035;53.594;9.952;2023-08-06T05:57:15;100494.94;;;17.08;74.22
28921;BME280;16035;53.594;9.952;2023-08-06T05:59:15;100491.56;;;17.11;74.27
28921;BME280;16035;53.594;9.952;2023-08-06T06:01:15;100483.00;;;17.13;74.24
28921;BME280;16035;53.594;9.952;2023-08-06T06:03:16;100487.69;;;17.12;74.61
28921;BME280;16035;53.594;9.952;2023-08-06T06:05:17;100489.31;;;17.13;74.54
28921;BME280;16035;53.594;9.952;2023-08-06T06:07:17;100493.69;;;17.14;74.44
28921;BME280;16035;53.594;9.952;2023-08-06T06:09:17;100492.56;;;17.15;74.07
28921;BME280;16035;53.594;9.952;2023-08-06T06:11:18;100496.44;;;17.14;74.31
28921;BME280;16035;53.594;9.952;2023-08-06T06:13:22;100493.38;;;17.16;74.56
28921;BME280;16035;53.594;9.952;2023-08-06T06:15:22;100495.00;;;17.17;74.66
28921;BME280;16035;53.594;9.952;2023-08-06T06:17:22;100494.19;;;17.16;74.53
28921;BME280;16035;53.594;9.952;2023-08-06T06:19:22;100492.78;;;17.19;74.41
28921;BME280;16035;53.594;9.952;2023-08-06T06:21:24;100495.50;;;17.19;74.44
28921;BME280;16035;53.594;9.952;2023-08-06T06:23:24;100500.50;;;17.17;74.28
28921;BME280;16035;53.594;9.952;2023-08-06T06:25:24;100505.19;;;17.16;74.41
28921;BME280;16035;53.594;9.952;2023-08-06T06:27:24;100491.44;;;17.16;74.54
28921;BME280;16035;53.594;9.952;2023-08-06T06:29:25;100491.94;;;17.18;74.50
28921;BME280;16035;53.594;9.952;2023-08-06T06:31:25;100494.06;;;17.22;74.46
28921;BME280;16035;53.594;9.952;2023-08-06T06:33:25;100487.97;;;17.25;74.71
28921;BME280;16035;53.594;9.952;2023-08-06T06:35:26;100480.72;;;17.29;74.63
28921;BME280;16035;53.594;9.952;2023-08-06T06:37:26;100489.44;;;17.31;74.61
28921;BME280;16035;53.594;9.952;2023-08-06T06:39:26;100481.53;;;17.29;74.29
28921;BME280;16035;53.594;9.952;2023-08-06T06:41:27;100477.47;;;17.27;74.38
28921;BME280;16035;53.594;9.952;2023-08-06T06:43:29;100486.81;;;17.26;74.16
28921;BME280;16035;53.594;9.952;2023-08-06T06:45:30;100485.91;;;17.30;74.38
28921;BME280;16035;53.594;9.952;2023-08-06T06:47:30;100489.44;;;17.31;74.18
28921;BME280;16035;53.594;9.952;2023-08-06T06:49:30;100481.41;;;17.34;74.23
28921;BME280;16035;53.594;9.952;2023-08-06T06:51:30;100478.03;;;17.37;74.12
28921;BME280;16035;53.594;9.952;2023-08-06T06:53:32;100484.53;;;17.41;74.06
28921;BME280;16035;53.594;9.952;2023-08-06T06:55:32;100486.16;;;17.42;74.46
28921;BME280;16035;53.594;9.952;2023-08-06T06:57:32;100488.91;;;17.42;74.24
28921;BME280;16035;53.594;9.952;2023-08-06T06:59:33;100485.50;;;17.46;74.16
28921;BME280;16035;53.594;9.952;2023-08-06T07:01:33;100484.06;;;17.48;74.34
28921;BME280;16035;53.594;9.952;2023-08-06T07:03:33;100477.16;;;17.51;74.24
28921;BME280;16035;53.594;9.952;2023-08-06T07:05:34;100484.44;;;17.55;74.24
28921;BME280;16035;53.594;9.952;2023-08-06T07:07:34;100484.94;;;17.57;74.51
28921;BME280;16035;53.594;9.952;2023-08-06T07:09:35;100481.56;;;17.60;74.62
28921;BME280;16035;53.594;9.952;2023-08-06T07:11:35;100476.88;;;17.61;74.16
28921;BME280;16035;53.594;9.952;2023-08-06T07:13:36;100482.88;;;17.63;74.13
28921;BME280;16035;53.594;9.952;2023-08-06T07:15:36;100472.88;;;17.67;74.38
28921;BME280;16035;53.594;9.952;2023-08-06T07:17:37;100479.34;;;17.71;74.49
28921;BME280;16035;53.594;9.952;2023-08-06T07:19:37;100477.00;;;17.78;74.63
28921;BME280;16035;53.594;9.952;2023-08-06T07:21:37;100485.31;;;17.87;74.75
28921;BME280;16035;53.594;9.952;2023-08-06T07:23:37;100476.59;;;17.93;74.47
28921;BME280;16035;53.594;9.952;2023-08-06T07:25:38;100480.00;;;17.99;74.70
28921;BME280;16035;53.594;9.952;2023-08-06T07:27:38;100470.97;;;18.07;74.75
28921;BME280;16035;53.594;9.952;2023-08-06T07:29:39;100483.63;;;18.08;74.02
28921;BME280;16035;53.594;9.952;2023-08-06T07:31:39;100477.97;;;18.13;74.29
28921;BME280;16035;53.594;9.952;2023-08-06T07:33:40;100475.09;;;18.18;73.71
28921;BME280;16035;53.594;9.952;2023-08-06T07:35:40;100465.88;;;18.23;73.68
28921;BME280;16035;53.594;9.952;2023-08-06T07:37:40;100471.38;;;18.23;73.85
28921;BME280;16035;53.594;9.952;2023-08-06T07:39:41;100479.00;;;18.26;73.89
28921;BME280;16035;53.594;9.952;2023-08-06T07:41:43;100484.16;;;18.28;73.35
28921;BME280;16035;53.594;9.952;2023-08-06T07:43:43;100488.19;;;18.30;73.48
28921;BME280;16035;53.594;9.952;2023-08-06T07:45:43;100488.19;;;18.30;73.46
28921;BME280;16035;53.594;9.952;2023-08-06T07:47:44;100490.31;;;18.33;73.65
28921;BME280;16035;53.594;9.952;2023-08-06T07:49:44;100494.38;;;18.36;73.58
28921;BME280;16035;53.594;9.952;2023-08-06T07:51:44;100488.09;;;18.35;73.18
28921;BME280;16035;53.594;9.952;2023-08-06T07:53:45;100490.19;;;18.38;73.65
28921;BME280;16035;53.594;9.952;2023-08-06T07:55:50;100480.97;;;18.43;73.75
28921;BME280;16035;53.594;9.952;2023-08-06T07:57:51;100481.47;;;18.45;73.49
28921;BME280;16035;53.594;9.952;2023-08-06T07:59:51;100483.56;;;18.48;73.56
28921;BME280;16035;53.594;9.952;2023-08-06T08:01:53;100477.59;;;18.46;73.09
28921;BME280;16035;53.594;9.952;2023-08-06T08:03:53;100480.97;;;18.43;73.35
28921;BME280;16035;53.594;9.952;2023-08-06T08:05:55;100475.47;;;18.43;73.49
28921;BME280;16035;53.594;9.952;2023-08-06T08:07:57;100471.09;;;18.42;73.60
28921;BME280;16035;53.594;9.952;2023-08-06T08:09:58;100480.34;;;18.46;73.95
28921;BME280;16035;53.594;9.952;2023-08-06T08:11:58;100472.56;;;18.48;73.74
28921;BME280;16035;53.594;9.952;2023-08-06T08:14:01;100469.16;;;18.51;73.79
28921;BME280;16035;53.594;9.952;2023-08-06T08:16:01;100478.06;;;18.57;73.72
28921;BME280;16035;53.594;9.952;2023-08-06T08:18:02;100467.56;;;18.59;73.16
28921;BME280;16035;53.594;9.952;2023-08-06T08:20:03;100471.94;;;18.60;73.62
28921;BME280;16035;53.594;9.952;2023-08-06T08:22:03;100474.88;;;18.63;73.61
28921;BME280;16035;53.594;9.952;2023-08-06T08:24:04;100465.84;;;18.72;73.63
28921;BME280;16035;53.594;9.952;2023-08-06T08:26:04;100471.66;;;18.79;73.87
28921;BME280;16035;53.594;9.952;2023-08-06T08:28:05;100472.81;;;18.86;73.59
28921;BME280;16035;53.594;9.952;2023-08-06T08:30:05;100466.50;;;18.86;73.47
28921;BME280;16035;53.594;9.952;2023-08-06T08:32:06;100466.50;;;18.86;73.16
28921;BME280;16035;53.594;9.952;2023-08-06T08:34:06;100464.06;;;18.84;73.14
28921;BME280;16035;53.594;9.952;2023-08-06T08:36:07;100470.38;;;18.85;73.36
28921;BME280;16035;53.594;9.952;2023-08-06T08:38:07;100463.91;;;18.89;73.56
28921;BME280;16035;53.594;9.952;2023-08-06T08:40:08;100466.34;;;18.91;73.16
28921;BME280;16035;53.594;9.952;2023-08-06T08:42:10;100465.84;;;18.89;72.76
28921;BME280;16035;53.594;9.952;2023-08-06T08:44:10;100466.84;;;18.84;72.80
28921;BME280;16035;53.594;9.952;2023-08-06T08:46:11;100465.69;;;18.85;73.32
28921;BME280;16035;53.594;9.952;2023-08-06T08:48:13;100458.72;;;18.88;73.37
28921;BME280;16035;53.594;9.952;2023-08-06T08:50:14;100464.72;;;18.90;73.59
28921;BME280;16035;53.594;9.952;2023-08-06T08:52:15;100470.69;;;18.92;73.19
28921;BME280;16035;53.594;9.952;2023-08-06T08:54:18;100469.41;;;18.89;73.23
28921;BME280;16035;53.594;9.952;2023-08-06T08:56:19;100461.63;;;18.91;73.47
28921;BME280;16035;53.594;9.952;2023-08-06T08:58:19;100461.00;;;18.94;73.58
28921;BME280;16035;53.594;9.952;2023-08-06T09:00:19;100464.56;;;18.95;73.31
28921;BME280;16035;53.594;9.952;2023-08-06T09:02:21;100458.06;;;18.91;73.20
28921;BME280;16035;53.594;9.952;2023-08-06T09:04:23;100448.84;;;18.87;72.82
28921;BME280;16035;53.594;9.952;2023-08-06T09:06:25;100456.47;;;18.81;73.03
28921;BME280;16035;53.594;9.952;2023-08-06T09:08:41;100458.06;;;18.74;72.77
28921;BME280;16035;53.594;9.952;2023-08-06T09:10:42;100454.47;;;18.64;72.75
28921;BME280;16035;53.594;9.952;2023-08-06T09:12:44;100450.44;;;18.62;72.95
28921;BME280;16035;53.594;9.952;2023-08-06T09:14:45;100449.59;;;18.61;73.13
28921;BME280;16035;53.594;9.952;2023-08-06T09:16:45;100453.66;;;18.64;73.22
28921;BME280;16035;53.594;9.952;2023-08-06T09:18:46;100455.25;;;18.65;73.64
28921;BME280;16035;53.594;9.952;2023-08-06T09:20:48;100460.13;;;18.68;72.99
28921;BME280;16035;53.594;9.952;2023-08-06T09:22:49;100458.53;;;18.67;73.12
28921;BME280;16035;53.594;9.952;2023-08-06T09:24:49;100465.66;;;18.68;73.15
28921;BME280;16035;53.594;9.952;2023-08-06T09:26:49;100470.22;;;18.73;73.32
28921;BME280;16035;53.594;9.952;2023-08-06T09:28:52;100467.47;;;18.73;73.14
28921;BME280;16035;53.594;9.952;2023-08-06T09:30:52;100466.31;;;18.74;73.08
28921;BME280;16035;53.594;9.952;2023-08-06T09:32:55;100464.88;;;18.76;73.23
28921;BME280;16035;53.594;9.952;2023-08-06T09:34:56;100462.13;;;18.76;73.33
28921;BME280;16035;53.594;9.952;2023-08-06T09:36:56;100461.78;;;18.78;73.35
28921;BME280;16035;53.594;9.952;2023-08-06T09:38:57;100461.31;;;18.76;73.04
28921;BME280;16035;53.594;9.952;2023-08-06T09:40:57;100466.66;;;18.72;73.11
28921;BME280;16035;53.594;9.952;2023-08-06T09:42:58;100469.72;;;18.71;72.91
28921;BME280;16035;53.594;9.952;2023-08-06T09:45:06;100467.59;;;18.67;73.12
28921;BME280;16035;53.594;9.952;2023-08-06T09:47:06;100468.41;;;18.68;73.08
28921;BME280;16035;53.594;9.952;2023-08-06T09:49:06;100468.09;;;18.69;73.02
28921;BME280;16035;53.594;9.952;2023-08-06T09:51:08;100463.84;;;18.63;73.09
28921;BME280;16035;53.594;9.952;2023-08-06T09:53:08;100464.50;;;18.60;72.38
28921;BME280;16035;53.594;9.952;2023-08-06T09:55:11;100470.97;;;18.56;72.72
28921;BME280;16035;53.594;9.952;2023-08-06T09:57:12;100464.97;;;18.54;72.72
28921;BME280;16035;53.594;9.952;2023-08-06T09:59:13;100472.09;;;18.55;72.83
28921;BME280;16035;53.594;9.952;2023-08-06T10:01:16;100466.25;;;18.56;73.14
28921;BME280;16035;53.594;9.952;2023-08-06T10:03:18;100468.03;;;18.52;72.92
28921;BME280;16035;53.594;9.952;2023-08-06T10:05:19;100468.69;;;18.49;72.76
28921;BME280;16035;53.594;9.952;2023-08-06T10:07:19;100470.94;;;18.47;72.75
28921;BME280;16035;53.594;9.952;2023-08-06T10:09:20;100465.59;;;18.51;73.10
28921;BME280;16035;53.594;9.952;2023-08-06T10:11:24;100463.50;;;18.56;73.49
28921;BME280;16035;53.594;9.952;2023-08-06T10:13:25;100463.06;;;18.63;73.38
28921;BME280;16035;53.594;9.952;2023-08-06T10:15:28;100461.09;;;18.63;73.20
28921;BME280;16035;53.594;9.952;2023-08-06T10:17:31;100458.34;;;18.63;73.10
28921;BME280;16035;53.594;9.952;2023-08-06T10:19:32;100454.28;;;18.61;72.82
28921;BME280;16035;53.594;9.952;2023-08-06T10:21:33;100447.81;;;18.57;72.88
28921;BME280;16035;53.594;9.952;2023-08-06T10:23:35;100443.78;;;18.54;72.53
28921;BME280;16035;53.594;9.952;2023-08-06T10:25:40;100442.28;;;18.48;72.46
28921;BME280;16035;53.594;9.952;2023-08-06T10:27:54;100438.44;;;18.49;73.04
28921;BME280;16035;53.594;9.952;2023-08-06T10:29:55;100447.81;;;18.57;72.94
28921;BME280;16035;53.594;9.952;2023-08-06T10:31:58;100438.75;;;18.56;73.02
28921;BME280;16035;53.594;9.952;2023-08-06T10:34:00;100436.16;;;18.60;73.38
28921;BME280;16035;53.594;9.952;2023-08-06T10:36:01;100440.38;;;18.57;72.92
28921;BME280;16035;53.594;9.952;2023-08-06T10:38:15;100439.06;;;18.55;73.18